MMMX/MEX METAR and TAF weather

Enter ICAO airport designator
Station Type Date Time Source
MMMX METAR 2021/09/25 03:42 UTC NOAA

MMMX 250342Z 02005KT 10SM SCT020 BKN220 18/11 A3037 NOSIG RMK 8/402 LWR SC


Station Type Date Time Source
MMMX Decoded METAR 2021/09/25 03:42 UTC NOAA

Mexico City / Licenci, Mexico (MMMX) 19-26N 099-06W
Sep 24, 2021 - 11:42 PM EDT / 2021.09.25 0342 UTC
Wind: from the NNE (020 degrees) at 6 MPH (5 KT):0
Visibility: 10 mile(s):0
Sky conditions: mostly cloudy
Temperature: 64 F (18 C)
Dew Point: 51 F (11 C)
Relative Humidity: 63%
Pressure (altimeter): 30.37 in. Hg (1028 hPa)
ob: MMMX 250342Z 02005KT 10SM SCT020 BKN220 18/11 A3037 NOSIG RMK 8/402 LWR SC
cycle: 3

Station Type Date Time Source
MMMX TAF 2021/09/24 12:59 UTC NOAA

TAF MMMX 241052Z 2412/2518 06005KT P6SM SCT020 SCT080 BKN200 TX23/2421Z TN11/2412Z
TEMPO 2412/2415 3SM BR BKN015
FM241800 03010KT P6SM SCT020 SCT200
TEMPO 2422/2502 6SM TSRA BKN020CB
FM250600 00000KT 6SM HZ SCT020 BKN080
TEMPO 2511/2515 2SM BR BKN010

Example: see airport list